Time;durP1;ratioP1;P1;durP2;ratioP2;P2;SDS_P1;SDS_P2;PMS_P1;PMS_P2;Temp;Humidity;BMP_temperature;BMP_pressure;BME280_temperature;BME280_humidity;BME280_pressure;Samples;Min_cycle;Max_cycle;Signal;HPM_P1;HPM_P2
2022/06/03 00:00:59;;;;;;;9.67;4.90;;;12.00;99.90;;;;;;5060719;28;20620;-72
2022/06/03 00:04:03;;;;;;;9.57;4.23;;;12.00;99.90;;;;;;5095593;28;20800;-72
2022/06/03 00:07:11;;;;;;;9.23;4.20;;;11.90;99.90;;;;;;5095634;28;20331;-72
2022/06/03 00:10:12;;;;;;;9.23;3.90;;;11.90;99.90;;;;;;5077676;28;20691;-72
2022/06/03 00:12:52;;;;;;;8.10;4.00;;;11.90;99.90;;;;;;5095605;28;20282;-72
2022/06/03 00:15:48;;;;;;;8.13;3.70;;;11.90;99.90;;;;;;5095516;28;20292;-72
2022/06/03 00:18:39;;;;;;;9.52;3.90;;;11.90;99.90;;;;;;5095947;28;20282;-72
2022/06/03 00:21:13;;;;;;;9.60;3.90;;;11.90;99.90;;;;;;5095714;28;20044;-72
2022/06/03 00:23:49;;;;;;;5.82;3.20;;;11.90;99.90;;;;;;5095285;28;20278;-72
2022/06/03 00:26:33;;;;;;;10.23;4.00;;;11.90;99.90;;;;;;5095821;28;20048;-72
2022/06/03 00:29:10;;;;;;;6.63;3.60;;;11.90;99.90;;;;;;5077509;28;20278;-72
2022/06/03 00:32:10;;;;;;;7.77;4.07;;;11.90;99.90;;;;;;5095069;28;20766;-72
2022/06/03 00:34:45;;;;;;;6.97;3.57;;;11.80;99.90;;;;;;5094883;28;20314;-72
2022/06/03 00:37:28;;;;;;;9.02;3.80;;;11.80;99.90;;;;;;5095426;28;20311;-72
2022/06/03 00:40:18;;;;;;;7.10;3.73;;;11.80;99.90;;;;;;5095438;28;20052;-72
2022/06/03 00:43:11;;;;;;;8.33;4.00;;;11.80;99.90;;;;;;5095072;28;20305;-72
2022/06/03 00:46:16;;;;;;;9.93;4.37;;;11.80;99.90;;;;;;5077170;28;20306;-72
2022/06/03 00:49:13;;;;;;;7.68;3.92;;;11.80;99.90;;;;;;5094812;28;20289;-72
2022/06/03 00:51:44;;;;;;;9.43;4.03;;;11.80;99.90;;;;;;5094921;28;20104;-72
2022/06/03 00:54:10;;;;;;;8.60;4.00;;;11.70;99.90;;;;;;5094844;28;20352;-71
2022/06/03 00:57:04;;;;;;;7.27;4.07;;;11.70;99.90;;;;;;5094694;28;20326;-72
2022/06/03 00:59:48;;;;;;;7.83;4.20;;;11.70;99.90;;;;;;5094337;28;20169;-72
2022/06/03 01:02:51;;;;;;;9.80;4.20;;;11.70;99.90;;;;;;5094908;28;20336;-72
2022/06/03 01:05:45;;;;;;;8.13;4.30;;;11.60;99.90;;;;;;5094647;28;20047;-72
2022/06/03 01:08:18;;;;;;;8.53;4.43;;;11.60;99.90;;;;;;5094680;28;20294;-72
2022/06/03 01:11:15;;;;;;;8.07;4.10;;;11.60;99.90;;;;;;5094392;28;20751;-72
2022/06/03 01:14:01;;;;;;;8.63;4.27;;;11.60;99.90;;;;;;5094321;28;20282;-72
2022/06/03 01:16:45;;;;;;;7.40;4.63;;;11.50;99.90;;;;;;5094650;28;20385;-72
2022/06/03 01:19:47;;;;;;;8.40;4.23;;;11.50;99.90;;;;;;5076702;28;20293;-72
2022/06/03 01:22:13;;;;;;;7.97;4.80;;;11.50;99.90;;;;;;5094341;28;20282;-72
2022/06/03 01:25:00;;;;;;;8.43;4.63;;;11.50;99.90;;;;;;5076201;28;20294;-72
2022/06/03 01:28:03;;;;;;;8.60;4.40;;;11.50;99.90;;;;;;5076675;28;20121;-72
2022/06/03 01:30:48;;;;;;;7.33;4.80;;;11.50;99.90;;;;;;5075961;28;20801;-75
2022/06/03 01:33:26;;;;;;;13.00;5.00;;;11.40;99.90;;;;;;5094190;28;20891;-71
2022/06/03 01:36:14;;;;;;;7.43;4.93;;;11.40;99.90;;;;;;5076258;28;20298;-72
2022/06/03 01:39:12;;;;;;;11.40;4.90;;;11.40;99.90;;;;;;5093763;28;20286;-72
2022/06/03 01:41:38;;;;;;;8.37;4.80;;;;;;;;;;5093922;28;20279;-72
2022/06/03 01:44:18;;;;;;;10.40;5.47;;;;;;;;;;5094251;28;20285;-72
2022/06/03 01:47:05;;;;;;;8.40;5.10;;;;;;;;;;5093809;28;20274;-72
2022/06/03 01:49:34;;;;;;;9.80;4.80;;;;;;;;;;5093999;28;20796;-72
2022/06/03 01:52:18;;;;;;;11.23;5.40;;;;;;;;;;5093929;28;20293;-72
2022/06/03 01:54:57;;;;;;;10.27;5.45;;;;;;;;;;5093495;28;20338;-72
2022/06/03 01:57:38;;;;;;;11.83;5.43;;;;;;;;;;5093758;28;20044;-72
2022/06/03 02:00:23;;;;;;;8.37;5.33;;;;;;;;;;5093806;28;20282;-72
2022/06/03 02:02:55;;;;;;;6.90;4.40;;;;;;;;;;5093605;28;20290;-72
2022/06/03 02:05:40;;;;;;;10.93;4.87;;;;;;;;;;5093834;28;20043;-72
2022/06/03 02:08:25;;;;;;;9.37;5.53;;;;;;;;;;5075509;28;20297;-72
2022/06/03 02:11:09;;;;;;;7.72;4.97;;;;;;;;;;5092423;28;20415;-72
2022/06/03 02:13:44;;;;;;;8.27;4.97;;;;;;;;;;5093428;28;20502;-78
2022/06/03 02:16:29;;;;;;;7.17;4.90;;;;;;;;;;5093358;28;20087;-72
2022/06/03 02:19:03;;;;;;;11.88;5.25;;;;;;;;;;5093249;28;20044;-72
2022/06/03 02:21:32;;;;;;;11.00;5.63;;;;;;;;;;5093426;28;20055;-72
2022/06/03 02:24:16;;;;;;;9.47;5.20;;;;;;;;;;5093006;28;20335;-72
2022/06/03 02:27:07;;;;;;;9.13;4.97;;;;;;;;;;5074913;28;20314;-72
2022/06/03 02:32:27;;;;;;;9.73;6.27;;;;;;;;;;5093331;28;20278;-72
2022/06/03 02:34:53;;;;;;;8.50;5.50;;;;;;;;;;5092934;28;20720;-72
2022/06/03 02:37:39;;;;;;;9.93;6.10;;;;;;;;;;5092881;28;20650;-72
2022/06/03 02:40:35;;;;;;;9.27;5.50;;;;;;;;;;5093493;28;20365;-72
2022/06/03 02:43:20;;;;;;;7.93;5.78;;;;;;;;;;5083745;28;20334;-72
2022/06/03 02:46:06;;;;;;;10.63;6.22;;;;;;;;;;5092865;28;20047;-72
2022/06/03 02:48:54;;;;;;;11.10;6.23;;;;;;;;;;5075216;28;20060;-72
2022/06/03 02:51:24;;;;;;;8.47;6.20;;;;;;;;;;5092932;28;20282;-72
2022/06/03 02:54:09;;;;;;;10.13;6.37;;;;;;;;;;5092489;28;20281;-72
2022/06/03 02:56:47;;;;;;;10.93;6.07;;;;;;;;;;5092978;28;20290;-72
2022/06/03 02:59:19;;;;;;;14.73;6.83;;;;;;;;;;5092887;28;20499;-72
2022/06/03 03:01:53;;;;;;;13.93;7.80;;;;;;;;;;5092457;28;20283;-72
2022/06/03 03:04:36;;;;;;;9.23;6.63;;;;;;;;;;5092727;28;20274;-72
2022/06/03 03:07:21;;;;;;;12.37;7.33;;;;;;;;;;5074878;28;20297;-72
2022/06/03 03:10:03;;;;;;;11.23;6.85;;;;;;;;;;5092557;28;20282;-72
2022/06/03 03:12:38;;;;;;;12.53;7.40;;;;;;;;;;5092641;28;20074;-72
2022/06/03 03:15:10;;;;;;;11.40;7.80;;;;;;;;;;5092500;28;20343;-72
2022/06/03 03:17:36;;;;;;;10.23;7.80;;;;;;;;;;5092772;28;20109;-72
2022/06/03 03:20:05;;;;;;;12.00;7.40;;;;;;;;;;5092461;28;20833;-72
2022/06/03 03:23:05;;;;;;;14.63;6.90;;;;;;;;;;5096367;28;20365;-72
2022/06/03 03:25:49;;;;;;;11.50;7.53;;;;;;;;;;5073585;28;20282;-72
2022/06/03 03:28:21;;;;;;;10.10;7.63;;;;;;;;;;5096732;28;20282;-72
2022/06/03 03:31:05;;;;;;;8.93;7.00;;;;;;;;;;5078339;28;20286;-73
2022/06/03 03:33:50;;;;;;;9.70;7.97;;;;;;;;;;5096162;28;20369;-73
2022/06/03 03:36:31;;;;;;;14.43;7.82;;;;;;;;;;5096635;28;20282;-72
2022/06/03 03:39:16;;;;;;;13.90;8.30;;;;;;;;;;5096337;28;20109;-72
2022/06/03 03:42:09;;;;;;;12.55;7.22;;;;;;;;;;5078349;28;20793;-73
2022/06/03 03:44:57;;;;;;;12.57;7.87;;;;;;;;;;5096523;28;20040;-72
2022/06/03 03:47:26;;;;;;;9.07;6.80;;;;;;;;;;5096627;28;20286;-73
2022/06/03 03:50:28;;;;;;;10.93;7.10;;;;;;;;;;5078085;28;20769;-73
2022/06/03 03:53:29;;;;;;;11.07;6.63;;;;;;;;;;5053507;28;20765;-73
2022/06/03 03:55:58;;;;;;;13.20;7.40;;;;;;;;;;5087973;28;20298;-73
2022/06/03 03:58:27;;;;;;;12.53;6.87;;;;;;;;;;5096037;28;20329;-72
2022/06/03 04:00:59;;;;;;;10.57;6.90;;;;;;;;;;5078046;28;20313;-72
2022/06/03 04:03:25;;;;;;;10.83;6.63;;;;;;;;;;5096052;28;20290;-72
2022/06/03 04:06:15;;;;;;;9.60;6.70;;;;;;;;;;5095669;28;20284;-73
2022/06/03 04:08:46;;;;;;;11.37;6.10;;;;;;;;;;5085524;28;20305;-72
2022/06/03 04:11:21;;;;;;;11.57;6.90;;;;;;;;;;5095483;28;20361;-72
2022/06/03 04:13:53;;;;;;;11.32;6.15;;;;;;;;;;5096015;28;20290;-72
2022/06/03 04:16:43;;;;;;;10.83;6.60;;;;;;;;;;5078032;28;20116;-72
2022/06/03 04:19:45;;;;;;;10.33;6.63;;;;;;;;;;5095488;28;20285;-73
2022/06/03 04:22:20;;;;;;;9.60;5.90;;;;;;;;;;5013265;28;20371;-73
2022/06/03 04:25:04;;;;;;;11.50;6.25;;;;;;;;;;5083892;28;20287;-72
2022/06/03 04:27:48;;;;;;;10.33;6.30;;;;;;;;;;5095430;28;20040;-72
2022/06/03 04:30:30;;;;;;;10.77;5.93;;;;;;;;;;5095255;28;20368;-72
2022/06/03 04:33:17;;;;;;;10.17;5.87;;;;;;;;;;5094064;28;20676;-72
2022/06/03 04:36:01;;;;;;;9.93;6.03;;;;;;;;;;5095417;28;20384;-72
2022/06/03 04:38:27;;;;;;;13.13;6.03;;;;;;;;;;5095449;28;20355;-72
2022/06/03 04:40:53;;;;;;;9.03;5.70;;;;;;;;;;5095128;28;20286;-74
2022/06/03 04:43:29;;;;;;;8.43;5.60;;;;;;;;;;5095292;28;20335;-72
2022/06/03 04:46:13;;;;;;;10.27;5.77;;;;;;;;;;5094923;28;20297;-73
2022/06/03 04:49:00;;;;;;;10.30;5.97;;;;;;;;;;5094970;28;20294;-73
2022/06/03 04:51:53;;;;;;;8.10;5.40;;;11.70;99.90;;;;;;5095187;28;20051;-73
2022/06/03 04:54:53;;;;;;;13.27;6.17;;;11.80;99.90;;;;;;5095103;28;20406;-72
2022/06/03 04:57:28;;;;;;;9.53;5.80;;;;;;;;;;5094837;28;20282;-72
2022/06/03 05:00:06;;;;;;;10.18;6.07;;;;;;;;;;5095126;28;20758;-74
2022/06/03 05:02:50;;;;;;;9.10;5.80;;;;;;;;;;5077124;28;20048;-73
2022/06/03 05:05:49;;;;;;;9.07;4.87;;;12.50;99.90;;;;;;5094463;28;20313;-71
2022/06/03 05:08:47;;;;;;;7.40;5.07;;;12.40;99.90;;;;;;5094637;28;20282;-71
2022/06/03 05:11:31;;;;;;;7.00;5.03;;;;;;;;;;5094494;28;20754;-71
2022/06/03 05:14:21;;;;;;;7.70;5.33;;;12.70;99.90;;;;;;5094399;28;20890;-73
2022/06/03 05:17:05;;;;;;;7.40;4.43;;;12.70;99.90;;;;;;5076897;28;20329;-72
2022/06/03 05:19:30;;;;;;;8.77;4.50;;;12.90;99.90;;;;;;5094461;28;20349;-71
2022/06/03 05:22:05;;;;;;;10.33;5.27;;;12.90;99.90;;;;;;5094306;28;20291;-71
2022/06/03 05:24:58;;;;;;;11.68;5.18;;;13.00;99.90;;;;;;5094659;28;20135;-71
2022/06/03 05:27:45;;;;;;;10.77;5.50;;;13.00;99.90;;;;;;5094347;28;20058;-71
2022/06/03 05:30:17;;;;;;;8.87;5.43;;;;;;;;;;5094097;28;20373;-71
2022/06/03 05:33:20;;;;;;;8.13;5.40;;;13.40;99.90;;;;;;5076301;28;20293;-71
2022/06/03 05:36:11;;;;;;;9.70;4.33;;;13.50;99.90;;;;;;5094148;28;20313;-71
2022/06/03 05:39:15;;;;;;;9.33;4.20;;;13.70;99.90;;;;;;5094040;28;20334;-71
2022/06/03 05:44:46;;;;;;;8.23;3.97;;;14.10;99.90;;;;;;5093766;28;20285;-71
2022/06/03 05:47:19;;;;;;;7.20;4.05;;;14.40;99.90;;;;;;5093951;28;20056;-71
2022/06/03 05:49:55;;;;;;;7.37;4.10;;;;;;;;;;5094221;28;20058;-71
2022/06/03 05:52:42;;;;;;;8.47;4.23;;;17.00;99.90;;;;;;5093698;28;20732;-71
2022/06/03 05:55:36;;;;;;;8.47;4.33;;;18.40;99.90;;;;;;5093604;28;20294;-72
2022/06/03 05:58:02;;;;;;;7.00;3.70;;;;;;;;;;5093740;28;20321;-76
2022/06/03 06:00:34;;;;;;;7.13;3.20;;;20.50;64.20;;;;;;5093800;28;20484;-71
2022/06/03 06:03:34;;;;;;;10.30;3.10;;;20.70;91.20;;;;;;5093999;28;20044;-71
2022/06/03 06:06:21;;;;;;;5.80;3.07;;;21.10;63.90;;;;;;5093935;28;20100;-72
2022/06/03 06:08:47;;;;;;;7.23;3.67;;;21.50;70.20;;;;;;5093644;28;20048;-72
2022/06/03 06:11:24;;;;;;;6.70;3.63;;;21.80;59.30;;;;;;5093252;28;20058;-72
2022/06/03 06:14:24;;;;;;;6.40;3.20;;;22.20;62.40;;;;;;5093367;28;20450;-71
2022/06/03 06:16:52;;;;;;;5.37;2.83;;;22.60;53.00;;;;;;5093608;28;20048;-72
2022/06/03 06:19:44;;;;;;;5.77;2.80;;;23.60;58.80;;;;;;5075402;28;20149;-72
2022/06/03 06:22:33;;;;;;;4.80;2.70;;;23.80;80.20;;;;;;5075200;28;20067;-72
2022/06/03 06:25:09;;;;;;;5.20;2.77;;;;;;;;;;5093612;28;20071;-72
2022/06/03 06:28:00;;;;;;;5.63;2.67;;;24.60;47.00;;;;;;5075560;28;20040;-72
2022/06/03 06:30:50;;;;;;;5.67;2.50;;;25.00;47.20;;;;;;5092875;28;20516;-72
2022/06/03 06:33:19;;;;;;;4.90;2.37;;;25.50;45.50;;;;;;5093312;28;20483;-72
2022/06/03 06:36:16;;;;;;;3.47;1.70;;;25.70;45.50;;;;;;5093084;28;20134;-72
2022/06/03 06:38:51;;;;;;;3.73;2.20;;;25.40;46.00;;;;;;5093281;28;20060;-72
2022/06/03 06:41:35;;;;;;;;;;;25.20;45.10;;;;;;5093062;28;20088;-72
2022/06/03 06:44:09;;;;;;;5.07;2.20;;;25.20;77.30;;;;;;5093106;28;19942;-72
2022/06/03 06:47:12;;;;;;;3.85;1.90;;;24.90;44.40;;;;;;5093110;28;20480;-72
2022/06/03 06:49:46;;;;;;;4.20;1.97;;;24.90;44.40;;;;;;5092962;28;20047;-72
2022/06/03 06:52:38;;;;;;;3.38;2.10;;;24.90;43.70;;;;;;5093005;28;20074;-72
2022/06/03 06:55:24;;;;;;;4.27;1.63;;;25.20;43.20;;;;;;5092762;28;20094;-72
2022/06/03 06:57:54;;;;;;;2.97;1.63;;;25.30;42.30;;;;;;5092815;28;20055;-71
2022/06/03 07:00:40;;;;;;;5.67;1.90;;;25.60;42.50;;;;;;5092669;28;20047;-71
2022/06/03 07:03:25;;;;;;;2.93;1.50;;;25.70;40.00;;;;;;5092996;28;20449;-71
2022/06/03 07:05:53;;;;;;;;;;;26.10;71.60;;;;;;5093413;28;20044;-69
2022/06/03 07:08:50;;;;;;;3.83;1.60;;;26.30;39.90;;;;;;5092455;28;19972;-70
2022/06/03 07:11:26;;;;;;;3.63;1.60;;;26.90;62.80;;;;;;5088484;28;20048;-71
2022/06/03 07:13:57;;;;;;;3.93;1.63;;;26.50;37.60;;;;;;5093059;28;20118;-71
2022/06/03 07:19:49;;;;;;;3.20;1.70;;;26.50;39.40;;;;;;5092376;28;20442;-71
2022/06/03 07:22:37;;;;;;;4.77;1.87;;;26.50;39.50;;;;;;5091786;28;20052;-71
2022/06/03 07:25:22;;;;;;;3.60;1.60;;;26.90;38.60;;;;;;5074858;28;20048;-71
2022/06/03 07:28:14;;;;;;;3.33;1.37;;;26.20;37.80;;;;;;5092934;28;20048;-71
2022/06/03 07:30:49;;;;;;;3.83;1.50;;;;;;;;;;5092591;28;20050;-71
2022/06/03 07:33:35;;;;;;;3.17;1.60;;;26.40;38.70;;;;;;5092007;28;20044;-72
2022/06/03 07:36:22;;;;;;;3.73;1.70;;;26.70;38.90;;;;;;5074287;28;20107;-72
2022/06/03 07:39:04;;;;;;;3.27;1.83;;;26.90;37.90;;;;;;5092696;28;20052;-72
2022/06/03 07:41:43;;;;;;;4.00;1.50;;;26.60;37.30;;;;;;5092348;28;20048;-72
2022/06/03 07:44:19;;;;;;;4.17;2.00;;;26.60;38.80;;;;;;5092720;28;20062;-71
2022/06/03 07:47:00;;;;;;;3.23;1.60;;;26.70;39.30;;;;;;5074850;28;20453;-71
2022/06/03 07:49:28;;;;;;;5.67;1.77;;;26.60;38.60;;;;;;5092116;28;20048;-71
2022/06/03 07:51:57;;;;;;;4.27;1.70;;;;;;;;;;5092328;28;20043;-72
2022/06/03 07:54:27;;;;;;;3.70;1.70;;;27.70;38.10;;;;;;5091903;28;20383;-72
2022/06/03 07:57:07;;;;;;;5.50;2.10;;;27.90;38.80;;;;;;5074349;28;20065;-72
2022/06/03 07:59:37;;;;;;;3.13;1.65;;;27.90;37.60;;;;;;5092186;28;20040;-72
2022/06/03 08:02:04;;;;;;;3.42;1.60;;;27.80;38.40;;;;;;5092258;28;20091;-72
2022/06/03 08:04:37;;;;;;;3.05;1.60;;;28.00;52.00;;;;;;5091990;28;20044;-72
2022/06/03 08:12:56;;;;;;;3.42;1.90;;;;;;;;;;5095786;28;20056;-72
2022/06/03 08:15:28;;;;;;;2.83;1.80;;;28.20;38.50;;;;;;5095638;28;20044;-73
2022/06/03 08:17:54;;;;;;;2.92;1.50;;;27.90;38.40;;;;;;5095964;28;20048;-72
2022/06/03 08:20:23;;;;;;;3.22;1.50;;;27.20;38.70;;;;;;5095473;28;20097;-72
2022/06/03 08:22:50;;;;;;;2.95;1.70;;;26.70;39.40;;;;;;5077747;28;20415;-71
2022/06/03 08:25:24;;;;;;;3.83;2.10;;;27.00;39.90;;;;;;5095662;28;20055;-72
2022/06/03 08:27:50;;;;;;;4.43;1.90;;;26.80;38.70;;;;;;5095779;28;20040;-71
2022/06/03 08:30:27;;;;;;;3.05;1.67;;;26.50;39.60;;;;;;5095632;28;20056;-71
2022/06/03 08:33:00;;;;;;;6.65;1.80;;;26.70;40.10;;;;;;5095701;28;20055;-72
2022/06/03 08:35:31;;;;;;;3.45;1.70;;;26.70;40.10;;;;;;5095217;28;20135;-72
2022/06/03 08:38:03;;;;;;;4.10;1.75;;;26.50;40.10;;;;;;5095020;28;20040;-72
2022/06/03 08:40:57;;;;;;;4.53;2.00;;;26.40;40.50;;;;;;5095273;28;20044;-72
2022/06/03 08:43:23;;;;;;;2.97;1.70;;;;;;;;;;5077345;28;20044;-73
2022/06/03 08:46:00;;;;;;;5.75;1.77;;;;;;;;;;5095260;28;20044;-72
2022/06/03 08:48:31;;;;;;;4.13;1.80;;;;;;;;;;5094779;28;20074;-72
2022/06/03 08:50:59;;;;;;;2.97;1.70;;;;;;;;;;5095656;28;20048;-72
2022/06/03 08:53:29;;;;;;;4.57;1.73;;;;;;;;;;5095001;28;20131;-72
2022/06/03 08:56:10;;;;;;;5.30;1.97;;;;;;;;;;5094834;28;20066;-71
2022/06/03 08:58:36;;;;;;;5.70;1.53;;;;;;;;;;5094819;28;20105;-72
2022/06/03 09:01:10;;;;;;;2.77;1.67;;;22.70;44.80;;;;;;5095022;28;20070;-72
2022/06/03 09:03:47;;;;;;;3.83;1.60;;;22.70;45.30;;;;;;5094823;28;20048;-72
2022/06/03 09:06:34;;;;;;;3.67;2.07;;;22.50;46.00;;;;;;5095160;28;20450;-72
2022/06/03 09:09:12;;;;;;;2.63;1.33;;;22.40;46.30;;;;;;5094901;28;20050;-71
2022/06/03 09:11:57;;;;;;;5.10;1.60;;;22.20;46.20;;;;;;5094538;28;20095;-72
2022/06/03 09:14:27;;;;;;;2.80;1.50;;;22.10;46.90;;;;;;5094659;28;20036;-71
2022/06/03 09:16:58;;;;;;;2.83;1.57;;;21.90;47.20;;;;;;5094789;28;20044;-72
2022/06/03 09:19:30;;;;;;;5.57;1.80;;;21.80;47.50;;;;;;5094034;28;20052;-71
2022/06/03 09:21:58;;;;;;;4.60;1.43;;;22.00;48.00;;;;;;5094640;28;20541;-71
2022/06/03 09:24:29;;;;;;;4.63;1.60;;;;;;;;;;5094612;28;20040;-71
2022/06/03 09:27:01;;;;;;;3.70;1.83;;;21.20;82.70;;;;;;5094569;28;20087;-71
2022/06/03 09:29:28;;;;;;;5.53;1.80;;;21.60;47.80;;;;;;5094244;28;20055;-72
2022/06/03 09:32:03;;;;;;;3.37;1.70;;;21.40;48.30;;;;;;5094277;28;20052;-71
2022/06/03 09:34:50;;;;;;;3.97;1.80;;;21.30;48.70;;;;;;5093918;28;20035;-72
2022/06/03 09:37:21;;;;;;;3.30;1.60;;;21.20;49.30;;;;;;5094259;28;20055;-72
2022/06/03 09:39:50;;;;;;;5.30;1.77;;;21.20;50.10;;;;;;5093969;28;20048;-72
2022/06/03 09:42:18;;;;;;;6.93;1.60;;;21.30;50.40;;;;;;5094139;28;20079;-71
2022/06/03 09:44:47;;;;;;;4.43;1.90;;;21.40;50.50;;;;;;5093726;28;20093;-71
2022/06/03 09:47:16;;;;;;;4.77;2.13;;;21.30;49.80;;;;;;5093888;28;20515;-71
2022/06/03 09:49:46;;;;;;;2.63;1.60;;;21.20;50.20;;;;;;5073356;28;20722;-72
2022/06/03 09:52:15;;;;;;;6.23;2.03;;;21.30;50.60;;;;;;5090831;28;20051;-71
2022/06/03 09:54:43;;;;;;;4.53;2.03;;;21.20;50.00;;;;;;5093557;28;20040;-71
2022/06/03 09:57:15;;;;;;;4.73;2.07;;;21.20;50.70;;;;;;5093668;28;20051;-71
2022/06/03 10:00:03;;;;;;;4.03;1.87;;;21.10;50.40;;;;;;5093957;28;20062;-71
2022/06/03 10:02:31;;;;;;;4.70;2.13;;;21.00;51.00;;;;;;5075760;28;20058;-71
2022/06/03 10:05:00;;;;;;;5.50;1.97;;;21.00;51.60;;;;;;5093701;28;20479;-71
2022/06/03 10:07:26;;;;;;;6.30;2.67;;;21.00;51.50;;;;;;5093584;28;20079;-71
2022/06/03 10:12:49;;;;;;;3.97;2.07;;;21.00;51.30;;;;;;5093363;28;20048;-72
2022/06/03 10:15:45;;;;;;;7.27;2.27;;;20.90;51.30;;;;;;5093128;28;20036;-71
2022/06/03 10:18:47;;;;;;;4.03;1.77;;;21.00;50.90;;;;;;5084014;28;20066;-71
2022/06/03 10:21:14;;;;;;;4.03;1.93;;;21.10;51.10;;;;;;5093323;28;20134;-71
2022/06/03 10:23:47;;;;;;;3.10;1.77;;;21.10;51.40;;;;;;5092852;28;20056;-71
2022/06/03 10:26:49;;;;;;;5.20;2.20;;;21.10;50.70;;;;;;5093191;28;20052;-71
2022/06/03 10:29:20;;;;;;;4.00;1.90;;;21.20;50.20;;;;;;5093230;28;20047;-71
2022/06/03 10:31:57;;;;;;;4.67;2.10;;;21.10;50.60;;;;;;5091496;28;20450;-71
2022/06/03 10:34:26;;;;;;;5.47;2.03;;;21.10;50.80;;;;;;5093155;28;20417;-71
2022/06/03 10:36:56;;;;;;;3.97;2.00;;;21.10;51.00;;;;;;5092890;28;20181;-71
2022/06/03 10:39:27;;;;;;;5.27;1.90;;;21.00;49.90;;;;;;5093247;28;20043;-71
2022/06/03 10:41:55;;;;;;;3.80;1.83;;;21.00;50.20;;;;;;5093068;28;20055;-71
2022/06/03 10:44:33;;;;;;;4.20;1.67;;;20.90;50.50;;;;;;5074883;28;20044;-71
2022/06/03 10:47:15;;;;;;;3.97;2.10;;;20.90;51.30;;;;;;5092860;28;20051;-71
2022/06/03 10:49:59;;;;;;;4.10;2.07;;;20.90;51.00;;;;;;5092941;28;20048;-71
2022/06/03 11:01:25;;;;;;;4.33;1.90;;;20.80;51.30;;;;;;5093300;28;20130;-71
2022/06/03 11:03:53;;;;;;;5.30;1.90;;;20.90;51.60;;;;;;5092629;28;20066;-71
2022/06/03 11:06:23;;;;;;;4.10;2.10;;;20.90;52.20;;;;;;5092498;28;20052;-72
2022/06/03 11:08:59;;;;;;;4.73;2.00;;;21.00;52.60;;;;;;5074658;28;20044;-72
2022/06/03 11:11:50;;;;;;;4.20;1.90;;;21.20;52.10;;;;;;5075128;28;20447;-71
2022/06/03 11:14:29;;;;;;;6.93;2.70;;;21.10;52.00;;;;;;5074582;28;20441;-71
2022/06/03 11:17:04;;;;;;;5.20;1.83;;;21.10;51.30;;;;;;5092539;28;20135;-75
2022/06/03 11:19:34;;;;;;;4.65;2.40;;;21.00;51.80;;;;;;5093069;28;20403;-73
2022/06/03 11:22:17;;;;;;;4.20;2.33;;;21.00;51.20;;;;;;5074417;28;20083;-73
2022/06/03 11:24:54;;;;;;;4.23;2.17;;;21.00;51.20;;;;;;5092321;28;20377;-73
2022/06/03 11:27:25;;;;;;;4.50;1.87;;;20.80;51.90;;;;;;5074986;28;20048;-75
2022/06/03 11:29:54;;;;;;;3.97;1.97;;;20.90;52.00;;;;;;5092571;28;20043;-75
2022/06/03 11:32:21;;;;;;;6.53;2.10;;;20.90;51.90;;;;;;5092764;28;20052;-78
2022/06/03 11:34:54;;;;;;;6.47;2.23;;;20.90;52.10;;;;;;5074169;28;20060;-78
2022/06/03 11:37:40;;;;;;;4.80;1.90;;;20.80;52.40;;;;;;5092464;28;20507;-76
2022/06/03 11:40:10;;;;;;;4.10;2.00;;;20.90;54.20;;;;;;5075247;28;20044;-78
2022/06/03 11:42:36;;;;;;;5.40;2.70;;;21.00;52.80;;;;;;5094454;28;20048;-80
2022/06/03 11:45:18;;;;;;;4.00;2.10;;;21.00;51.90;;;;;;5078009;28;20522;-72
2022/06/03 11:48:00;;;;;;;5.60;2.00;;;21.00;51.50;;;;;;5095874;28;20492;-78
2022/06/03 11:50:28;;;;;;;6.47;1.83;;;20.90;51.90;;;;;;5096387;28;20051;-76
2022/06/03 11:52:55;;;;;;;5.27;2.40;;;20.90;52.00;;;;;;5096126;28;20048;-76
2022/06/03 11:55:25;;;;;;;3.90;2.00;;;21.00;52.60;;;;;;5096517;28;20125;-76
2022/06/03 11:58:20;;;;;;;6.53;2.20;;;21.00;52.30;;;;;;5096091;28;20507;-75
2022/06/03 12:01:02;;;;;;;4.22;2.10;;;21.00;52.30;;;;;;5096028;28;20106;-74
2022/06/03 12:03:45;;;;;;;3.83;1.83;;;20.90;51.70;;;;;;5078393;28;20048;-75
2022/06/03 12:06:18;;;;;;;3.50;1.43;;;20.90;52.00;;;;;;5096039;28;20044;-76
2022/06/03 12:09:00;;;;;;;4.27;2.10;;;20.90;52.20;;;;;;5095806;28;20055;-79
2022/06/03 12:14:42;;;;;;;4.37;2.03;;;21.00;52.20;;;;;;5095096;28;20105;-78
2022/06/03 12:17:11;;;;;;;6.00;2.47;;;21.00;52.50;;;;;;5077409;28;20044;-74
2022/06/03 12:19:41;;;;;;;3.67;1.90;;;21.00;52.00;;;;;;5096098;28;20052;-74
2022/06/03 12:22:28;;;;;;;5.60;2.67;;;21.00;52.60;;;;;;5095596;28;20060;-74
2022/06/03 12:24:56;;;;;;;2.97;1.63;;;21.00;51.30;;;;;;5095568;28;20134;-74
2022/06/03 12:27:38;;;;;;;5.97;2.47;;;21.00;51.40;;;;;;5095520;28;20051;-74
2022/06/03 12:30:17;;;;;;;4.07;1.80;;;21.00;50.60;;;;;;5095471;28;20453;-74
2022/06/03 12:33:04;;;;;;;3.33;1.90;;;20.90;51.30;;;;;;5095531;28;20063;-73
2022/06/03 12:35:56;;;;;;;5.23;2.10;;;20.90;52.30;;;;;;5095601;28;20056;-75
2022/06/03 12:38:22;;;;;;;4.20;1.77;;;21.00;52.00;;;;;;5095515;28;20056;-68
2022/06/03 12:40:56;;;;;;;4.10;1.83;;;20.90;52.90;;;;;;5095252;28;20541;-78
2022/06/03 12:43:28;;;;;;;3.78;2.03;;;20.80;53.00;;;;;;5095506;28;20048;-73
2022/06/03 12:46:09;;;;;;;4.73;1.80;;;20.90;52.50;;;;;;5095060;28;20052;-75
2022/06/03 12:48:44;;;;;;;4.87;2.00;;;21.00;51.90;;;;;;5095539;28;20048;-74
2022/06/03 12:51:28;;;;;;;6.10;2.13;;;21.00;53.10;;;;;;5094970;28;20056;-74
2022/06/03 12:54:15;;;;;;;4.07;2.10;;;21.10;52.80;;;;;;5093830;28;20040;-74
2022/06/03 12:56:48;;;;;;;4.43;1.90;;;21.00;53.50;;;;;;5095183;28;20113;-73
2022/06/03 12:59:30;;;;;;;5.00;2.10;;;21.10;53.50;;;;;;5094869;28;20239;-72
2022/06/03 13:02:13;;;;;;;5.70;2.27;;;21.10;52.70;;;;;;5094595;28;20530;-68
2022/06/03 13:05:07;;;;;;;5.03;2.37;;;21.00;54.00;;;;;;5077116;28;20052;-65
2022/06/03 13:07:36;;;;;;;4.00;2.00;;;21.10;52.70;;;;;;5094210;28;20074;-67
2022/06/03 13:10:07;;;;;;;6.40;2.10;;;21.00;53.50;;;;;;5094579;28;20040;-67
2022/06/03 13:12:34;;;;;;;6.30;2.47;;;21.00;52.60;;;;;;5094735;28;20078;-67
2022/06/03 13:15:21;;;;;;;6.23;2.20;;;20.90;52.80;;;;;;5094394;28;20055;-68
2022/06/03 13:18:12;;;;;;;4.60;1.97;;;21.00;53.10;;;;;;5094953;28;20056;-68
2022/06/03 13:21:10;;;;;;;3.90;2.00;;;20.90;53.70;;;;;;5094949;28;20071;-67
2022/06/03 13:23:44;;;;;;;5.17;1.97;;;20.80;56.70;;;;;;5076257;28;20102;-68
2022/06/03 13:26:22;;;;;;;5.18;2.10;;;20.80;58.30;;;;;;5094518;28;20052;-68
2022/06/03 13:29:06;;;;;;;5.30;2.27;;;20.90;58.50;;;;;;5094678;28;20404;-68
2022/06/03 13:31:41;;;;;;;6.87;2.00;;;20.70;58.70;;;;;;5094431;28;20434;-67
2022/06/03 13:34:12;;;;;;;;;;;20.50;60.50;;;;;;5094288;28;20071;-68
2022/06/03 13:36:39;;;;;;;7.17;2.20;;;20.40;61.70;;;;;;5094626;28;19920;-68
2022/06/03 13:39:10;;;;;;;7.63;2.00;;;20.40;62.50;;;;;;5093871;28;20503;-68
2022/06/03 13:44:41;;;;;;;6.33;2.00;;;20.50;61.80;;;;;;5094165;28;20407;-68
2022/06/03 13:47:18;;;;;;;4.73;1.93;;;20.40;62.00;;;;;;5093910;28;20134;-67
2022/06/03 13:49:57;;;;;;;5.77;1.57;;;20.40;62.50;;;;;;5076161;28;20097;-67
2022/06/03 13:52:37;;;;;;;4.27;1.70;;;20.50;62.60;;;;;;5093985;28;20083;-68
2022/06/03 13:55:31;;;;;;;7.37;1.87;;;20.30;61.00;;;;;;5093514;28;20047;-68
2022/06/03 13:58:03;;;;;;;5.00;1.90;;;20.20;62.20;;;;;;5086484;28;20056;-68
2022/06/03 14:00:37;;;;;;;3.40;1.27;;;20.20;62.20;;;;;;5076188;28;20048;-68
2022/06/03 14:03:03;;;;;;;;;;;20.30;62.20;;;;;;5094138;28;20040;-68
2022/06/03 14:05:32;;;;;;;5.60;1.70;;;20.30;61.20;;;;;;5093551;28;20437;-68
2022/06/03 14:08:03;;;;;;;5.97;1.60;;;20.30;60.80;;;;;;5093779;28;20052;-67
2022/06/03 14:10:43;;;;;;;11.03;1.70;;;20.20;60.30;;;;;;5093733;28;20044;-67
2022/06/03 14:13:24;;;;;;;2.90;1.40;;;20.10;59.00;;;;;;5075314;28;20400;-68
2022/06/03 14:16:13;;;;;;;4.60;1.90;;;20.10;60.50;;;;;;5093443;28;20067;-68
2022/06/03 14:18:52;;;;;;;5.30;1.20;;;20.10;59.30;;;;;;5093814;28;20484;-67
2022/06/03 14:21:39;;;;;;;6.97;1.73;;;20.10;59.00;;;;;;5093219;28;20094;-68
2022/06/03 14:24:19;;;;;;;6.77;1.27;;;20.00;59.30;;;;;;5093109;28;20043;-68
2022/06/03 14:27:13;;;;;;;6.63;1.23;;;20.10;59.30;;;;;;5093624;28;20050;-67
2022/06/03 14:29:53;;;;;;;3.23;1.33;;;20.10;59.80;;;;;;5093742;28;20097;-72
2022/06/03 14:32:21;;;;;;;4.10;1.37;;;20.10;58.60;;;;;;5093063;28;20047;-72
2022/06/03 14:34:57;;;;;;;4.10;1.20;;;20.10;57.50;;;;;;5075404;28;20103;-72
2022/06/03 14:37:48;;;;;;;6.30;1.50;;;20.20;58.50;;;;;;5074733;28;20058;-72
2022/06/03 14:40:35;;;;;;;5.33;1.60;;;20.10;57.30;;;;;;5093005;28;20044;-72
2022/06/03 14:43:03;;;;;;;3.60;1.20;;;20.10;55.90;;;;;;5093008;28;20073;-72
2022/06/03 14:45:34;;;;;;;4.03;1.20;;;20.10;57.30;;;;;;5093182;28;20048;-72
2022/06/03 14:48:04;;;;;;;4.10;1.53;;;20.10;57.30;;;;;;5093147;28;20044;-72
2022/06/03 14:50:33;;;;;;;3.77;1.30;;;20.10;56.70;;;;;;5093234;28;20048;-72
2022/06/03 14:53:37;;;;;;;3.13;1.13;;;20.20;55.50;;;;;;5093010;28;20090;-68